Time;durP1;ratioP1;P1;durP2;ratioP2;P2;SDS_P1;SDS_P2;PMS_P1;PMS_P2;Temp;Humidity;BMP_temperature;BMP_pressure;BME280_temperature;BME280_humidity;BME280_pressure;Samples;Min_cycle;Max_cycle;Signal;HPM_P1;HPM_P2
2024/01/10 05:32:44;;;;;;;;;42.25;34.00;;;;;11.53;33.15;102017.25;5036553;27;45689;-79
2024/01/10 05:35:10;;;;;;;;;46.67;40.67;;;;;11.58;33.23;102018.88;5035111;28;45506;-78
2024/01/10 05:37:36;;;;;;;;;56.33;44.67;;;;;11.50;32.96;101987.78;5034885;28;45422;-81
2024/01/10 05:40:01;;;;;;;;;50.50;36.75;;;;;11.70;32.96;102029.25;5031766;28;45710;-80
2024/01/10 05:42:27;;;;;;;;;44.25;37.00;;;;;11.63;33.04;102008.88;5027981;28;45260;-80
2024/01/10 05:44:53;;;;;;;;;40.75;40.00;;;;;11.63;32.78;102005.31;5016653;28;45508;-80
2024/01/10 05:47:18;;;;;;;;;47.75;38.00;;;;;11.70;33.10;102014.94;5034808;28;45573;-78
2024/01/10 05:49:43;;;;;;;;;49.75;42.75;;;;;11.56;33.14;101991.19;5034249;28;57538;-79
2024/01/10 05:52:09;;;;;;;;;48.25;40.25;;;;;11.68;32.82;102008.72;5034531;28;45544;-80
2024/01/10 05:54:34;;;;;;;;;41.25;38.75;;;;;11.44;32.97;101979.94;5034575;28;45412;-80
2024/01/10 05:57:00;;;;;;;;;48.50;41.00;;;;;11.71;33.07;102020.28;5034466;28;45469;-79
2024/01/10 05:59:26;;;;;;;;;52.75;43.00;;;;;11.69;33.43;102018.56;5034442;28;45380;-80
2024/01/10 06:01:52;;;;;;;;;46.50;39.50;;;;;11.54;33.43;101986.78;5033782;28;45442;-79
2024/01/10 06:04:20;;;;;;;;;53.00;39.33;;;;;11.55;33.50;101994.81;5034455;28;45397;-80
2024/01/10 06:06:45;;;;;;;;;37.75;35.75;;;;;11.63;33.39;102005.31;5035093;28;45489;-80
2024/01/10 06:09:11;;;;;;;;;39.50;34.50;;;;;11.48;33.65;101985.19;5044645;28;45537;-82
2024/01/10 06:11:42;;;;;;;;;41.75;39.25;;;;;11.64;33.37;102004.41;5034251;28;45955;-81
2024/01/10 06:14:08;;;;;;;;;38.00;28.33;;;;;11.62;33.21;102000.88;5016445;28;45739;-81
2024/01/10 06:16:34;;;;;;;;;51.25;36.50;;;;;11.72;33.07;102018.47;5034646;28;45228;-80
2024/01/10 06:18:59;;;;;;;;;57.25;39.00;;;;;11.67;33.24;101996.22;5032635;28;45596;-80
2024/01/10 06:21:24;;;;;;;;;48.50;41.75;;;;;11.64;33.37;101986.47;5029090;28;45870;-80
2024/01/10 06:23:50;;;;;;;;;38.00;36.00;;;;;11.79;33.03;102013.81;5034130;28;45344;-74
2024/01/10 06:26:15;;;;;;;;;46.75;37.50;;;;;11.70;33.27;101997.03;5034078;28;45226;-75
2024/01/10 06:28:41;;;;;;;;;45.00;38.75;;;;;11.81;33.02;102012.84;5020306;28;45254;-77
2024/01/10 06:31:06;;;;;;;;;44.75;38.50;;;;;11.57;32.56;101975.97;5034423;28;45584;-82
2024/01/10 06:33:34;;;;;;;;;37.75;37.75;;;;;11.68;32.87;102000.69;5033597;28;45605;-80
2024/01/10 06:36:00;;;;;;;;;46.00;39.00;;;;;11.80;32.63;102010.22;5034120;28;45381;-76
2024/01/10 06:38:25;;;;;;;;;41.75;39.25;;;;;11.79;32.84;102019.19;5035219;28;45466;-80
2024/01/10 06:40:51;;;;;;;;;49.75;39.75;;;;;11.84;32.61;102014.53;5032375;28;46461;-77
2024/01/10 06:43:16;;;;;;;;;48.00;40.25;;;;;11.79;32.96;102014.69;5039223;28;45398;-75
2024/01/10 06:45:42;;;;;;;;;48.00;39.00;;;;;11.80;32.23;102007.53;5038544;28;45373;-75
2024/01/10 06:48:08;;;;;;;;;33.00;31.25;;;;;11.74;32.11;102001.38;5037018;28;45630;-73
2024/01/10 06:50:33;;;;;;;;;44.75;39.00;;;;;11.78;32.48;102007.56;5037557;28;46503;-78
2024/01/10 06:52:59;;;;;;;;;45.25;37.00;;;;;11.64;32.02;101986.47;5036924;28;45311;-76
2024/01/10 06:55:24;;;;;;;;;42.00;38.50;;;;;11.83;31.71;102016.34;5018954;28;51081;-77
2024/01/10 06:57:52;;;;;;;;;32.00;27.75;;;;;11.79;31.87;102008.44;5036856;28;45351;-72
2024/01/10 07:00:22;;;;;;;;;46.25;39.00;;;;;11.77;31.93;102007.59;5036627;28;46969;-76
2024/01/10 07:02:48;;;;;;;;;40.25;36.50;;;;;11.83;31.45;102013.66;5037185;28;45416;-80
2024/01/10 07:05:14;;;;;;;;;41.00;37.00;;;;;11.68;31.87;102014.97;5037488;28;45336;-76
2024/01/10 07:07:39;;;;;;;;;41.50;34.50;;;;;11.40;31.77;102005.97;5042033;28;45356;-77
2024/01/10 07:10:05;;;;;;;;;33.25;33.25;;;;;11.24;32.23;102018.09;5042445;28;45335;-78
2024/01/10 07:12:31;;;;;;;;;34.50;29.75;;;;;10.77;32.17;101980.03;5018749;28;45300;-79
2024/01/10 07:14:57;;;;;;;;;43.00;34.25;;;;;10.92;32.54;102030.59;5018218;28;45351;-78
2024/01/10 07:17:22;;;;;;;;;39.50;32.25;;;;;10.58;32.14;101985.00;5036115;28;45385;-80
2024/01/10 07:19:48;;;;;;;;;38.75;34.00;;;;;10.63;32.43;102018.88;5029769;28;46307;-77
2024/01/10 07:22:14;;;;;;;;;26.00;24.75;;;;;10.57;32.55;102019.91;5014630;28;45491;-74
2024/01/10 07:24:39;;;;;;;;;32.25;28.00;;;;;10.48;32.66;102009.41;5036286;28;45432;-75
2024/01/10 07:27:06;;;;;;;;;41.50;35.25;;;;;10.48;32.57;102030.84;5035763;28;45394;-76
2024/01/10 07:29:31;;;;;;;;;42.67;37.33;;;;;10.29;32.48;102021.53;5033183;28;46188;-76
2024/01/10 07:31:57;;;;;;;;;36.00;30.75;;;;;10.25;32.90;102026.06;5034669;28;45365;-77
2024/01/10 07:34:22;;;;;;;;;33.00;32.33;;;;;10.12;32.77;102033.47;5035707;28;45429;-76
2024/01/10 07:36:47;;;;;;;;;40.00;35.75;;;;;10.11;33.25;102030.84;5036391;28;45601;-76
2024/01/10 07:39:15;;;;;;;;;36.25;31.50;;;;;10.01;33.38;102022.16;5034897;28;46090;-77
2024/01/10 07:41:41;;;;;;;;;27.00;27.00;;;;;10.09;33.26;102038.03;5027828;28;45375;-76
2024/01/10 07:44:09;;;;;;;;;39.67;34.00;;;;;10.01;33.22;102031.97;5034681;28;45339;-76
2024/01/10 07:46:35;;;;;;;;;38.67;29.67;;;;;10.09;33.28;102033.56;5035313;28;45481;-77
2024/01/10 07:49:00;;;;;;;;;31.33;26.00;;;;;10.02;33.38;102023.03;5029532;28;45423;-75
2024/01/10 07:51:25;;;;;;;;;43.33;35.67;;;;;10.06;33.41;102022.91;5033733;28;45406;-75
2024/01/10 07:53:51;;;;;;;;;33.00;27.75;;;;;9.88;33.69;102023.31;5017976;28;45376;-75
2024/01/10 07:56:16;;;;;;;;;52.00;33.50;;;;;9.94;33.87;102033.94;5035789;28;45561;-75
2024/01/10 07:58:42;;;;;;;;;44.25;34.75;;;;;10.04;33.74;102037.25;5017522;28;50021;-77
2024/01/10 08:01:07;;;;;;;;;36.75;31.25;;;;;10.03;33.64;102033.72;5001255;28;48474;-78
2024/01/10 08:03:33;;;;;;;;;42.25;36.25;;;;;10.09;34.04;102033.56;5035536;28;45505;-77
2024/01/10 08:05:59;;;;;;;;;36.67;33.33;;;;;10.07;33.07;102040.75;5035785;28;45486;-76
2024/01/10 08:08:24;;;;;;;;;31.00;29.67;;;;;10.06;33.64;102049.69;5045117;28;45510;-79
2024/01/10 08:10:49;;;;;;;;;40.00;36.50;;;;;10.00;33.52;102047.16;5035928;28;45192;-77
2024/01/10 08:13:14;;;;;;;;;43.00;31.75;;;;;10.08;32.96;102055.03;5035100;28;55020;-77
2024/01/10 08:15:41;;;;;;;;;42.75;38.00;;;;;10.11;33.74;102046.94;5035957;28;45344;-78
2024/01/10 08:18:07;;;;;;;;;50.33;38.00;;;;;10.11;33.30;102046.94;5035486;28;46267;-77
2024/01/10 08:20:32;;;;;;;;;42.00;35.25;;;;;10.08;33.35;102037.16;5027703;28;45556;-78
2024/01/10 08:22:58;;;;;;;;;36.25;30.00;;;;;10.11;32.81;102055.84;5035163;28;45478;-76
2024/01/10 08:25:23;;;;;;;;;40.33;39.67;;;;;10.00;32.81;102046.28;5036105;28;45272;-79
2024/01/10 08:27:49;;;;;;;;;48.00;40.25;;;;;9.91;33.19;102041.13;5030038;28;45584;-77
2024/01/10 08:30:14;;;;;;;;;31.50;31.50;;;;;10.07;33.08;102063.97;5035083;28;45342;-80
2024/01/10 08:32:40;;;;;;;;;34.75;30.25;;;;;9.86;33.08;102022.50;5035141;28;45502;-79
2024/01/10 08:35:08;;;;;;;;;36.50;31.00;;;;;9.96;33.13;102044.56;5017062;28;47558;-77
2024/01/10 08:37:34;;;;;;;;;39.67;39.00;;;;;9.84;33.45;102016.28;5035598;28;45306;-76
2024/01/10 08:40:00;;;;;;;;;31.50;28.50;;;;;10.08;33.54;102055.91;5032693;28;45377;-77
2024/01/10 08:42:26;;;;;;;;;35.67;34.33;;;;;10.11;33.31;102065.69;5028741;28;45505;-77
2024/01/10 08:44:51;;;;;;;;;37.50;32.50;;;;;10.07;33.00;102053.25;5035378;28;45446;-79
2024/01/10 08:47:16;;;;;;;;;43.67;35.67;;;;;10.11;33.41;102063.91;5017110;28;48598;-76
2024/01/10 08:49:42;;;;;;;;;46.33;38.67;;;;;10.10;33.11;102062.13;5037405;28;48794;-79
2024/01/10 08:52:08;;;;;;;;;38.25;34.75;;;;;10.11;33.24;102066.56;5033953;28;45316;-78
2024/01/10 08:54:33;;;;;;;;;40.00;37.50;;;;;9.95;33.48;102041.06;5036094;28;45250;-78
2024/01/10 08:57:00;;;;;;;;;43.67;37.33;;;;;10.05;33.82;102060.44;5017685;28;47564;-77
2024/01/10 08:59:27;;;;;;;;;34.25;33.50;;;;;10.15;33.71;102073.59;5035999;28;45453;-77
2024/01/10 09:01:52;;;;;;;;;48.00;36.00;;;;;10.18;33.91;102083.41;5002396;28;45450;-79
2024/01/10 09:04:19;;;;;;;;;41.50;36.00;;;;;9.99;33.95;102039.16;5035657;28;54049;-77
2024/01/10 09:06:45;;;;;;;;;31.67;31.67;;;;;10.23;33.90;102070.78;5033566;28;45603;-80
2024/01/10 09:09:10;;;;;;;;;31.00;31.00;;;;;10.09;33.45;102052.31;5044554;28;45355;-79
2024/01/10 09:11:36;;;;;;;;;42.33;37.00;;;;;10.09;33.42;102062.16;5036498;28;45495;-78
2024/01/10 09:14:01;;;;;;;;;33.25;32.50;;;;;10.13;33.30;102074.56;5035384;28;45442;-77
2024/01/10 09:16:26;;;;;;;;;39.33;37.33;;;;;9.96;33.41;102049.94;5032964;28;47229;-78
2024/01/10 09:18:56;;;;;;;;;42.00;37.33;;;;;10.09;33.26;102065.72;5034730;28;45233;-79
2024/01/10 09:21:21;;;;;;;;;43.67;36.00;;;;;9.91;33.36;102028.63;5017180;28;45624;-79
2024/01/10 09:23:50;;;;;;;;;48.00;35.67;;;;;10.11;33.29;102063.91;5035419;28;45517;-81
2024/01/10 09:26:16;;;;;;;;;41.33;37.33;;;;;10.18;33.37;102068.22;5034848;28;46052;-81
2024/01/10 09:28:42;;;;;;;;;49.00;38.67;;;;;10.24;33.48;102078.78;5034883;28;45336;-81
2024/01/10 09:31:07;;;;;;;;;40.67;32.33;;;;;9.89;33.64;102000.97;5016798;28;45396;-78
2024/01/10 09:33:33;;;;;;;;;38.00;34.67;;;;;10.32;33.25;102078.59;5035061;28;45343;-79
2024/01/10 09:35:59;;;;;;;;;35.00;30.25;;;;;10.14;33.31;102062.91;5036029;28;45602;-76
2024/01/10 09:38:24;;;;;;;;;55.67;42.00;;;;;10.20;33.38;102082.47;5016305;28;45479;-80
2024/01/10 09:40:52;;;;;;;;;41.00;35.33;;;;;10.30;32.89;102082.22;5026341;28;45503;-77
2024/01/10 09:43:17;;;;;;;;;47.67;41.33;;;;;10.23;33.03;102081.50;5035805;28;45440;-80
2024/01/10 09:45:46;;;;;;;;;41.33;38.00;;;;;10.35;33.11;102102.69;5034105;28;45627;-80
2024/01/10 09:48:13;;;;;;;;;33.00;31.33;;;;;10.42;33.52;102087.31;5037756;28;45470;-81
2024/01/10 09:50:39;;;;;;;;;43.67;37.67;;;;;10.35;32.66;102080.34;5017400;28;45394;-79
2024/01/10 09:53:13;;;;;;;;;54.33;43.33;;;;;10.33;32.82;102069.66;5034963;28;45495;-79
2024/01/10 09:55:38;;;;;;;;;44.33;39.67;;;;;10.31;32.51;102057.19;5029890;28;45653;-78
2024/01/10 09:58:05;;;;;;;;;34.25;33.00;;;;;10.30;32.72;102068.84;5035513;28;45915;-82
2024/01/10 10:00:33;;;;;;;;;45.50;35.75;;;;;10.47;32.46;102093.44;5034908;28;45288;-79
2024/01/10 10:03:00;;;;;;;;;41.25;37.00;;;;;10.41;32.28;102074.81;5034094;28;45674;-80
2024/01/10 10:05:27;;;;;;;;;44.00;37.25;;;;;10.27;32.55;102056.41;5033925;28;46463;-79
2024/01/10 10:07:53;;;;;;;;;38.75;36.50;;;;;10.51;32.17;102103.19;5040946;28;45374;-80
2024/01/10 10:10:19;;;;;;;;;39.50;36.75;;;;;10.47;32.51;102090.75;5019661;28;45358;-79
2024/01/10 10:12:49;;;;;;;;;34.50;31.00;;;;;10.49;32.01;102086.25;5038929;28;46229;-79
2024/01/10 10:15:16;;;;;;;;;38.75;32.50;;;;;10.44;32.54;102077.44;5021737;28;47286;-78
2024/01/10 10:17:46;;;;;;;;;37.75;32.75;;;;;10.57;32.00;102086.94;5039791;28;45299;-80
2024/01/10 10:20:14;;;;;;;;;41.00;35.00;;;;;10.49;32.21;102068.38;5017477;28;45614;-79
2024/01/10 10:22:40;;;;;;;;;34.50;31.75;;;;;10.55;31.64;102067.31;5019773;28;47057;-78
2024/01/10 10:25:05;;;;;;;;;33.75;32.50;;;;;10.67;31.45;102080.44;5037311;28;46379;-78
2024/01/10 10:27:30;;;;;;;;;41.00;34.50;;;;;10.63;31.27;102070.72;5038158;28;45307;-77
2024/01/10 10:29:56;;;;;;;;;32.75;31.50;;;;;10.77;30.92;102079.28;5037646;28;45304;-79
2024/01/10 10:32:21;;;;;;;;;42.00;37.25;;;;;10.77;30.78;102086.47;5037649;28;45933;-77
2024/01/10 10:34:47;;;;;;;;;38.50;32.50;;;;;10.61;30.97;102053.78;5037040;28;46303;-77
2024/01/10 10:37:12;;;;;;;;;39.25;29.50;;;;;10.69;31.08;102058.94;5036913;28;45386;-81
2024/01/10 10:39:38;;;;;;;;;40.75;33.00;;;;;10.70;31.17;102052.66;5019266;28;45220;-79
2024/01/10 10:42:04;;;;;;;;;41.00;34.75;;;;;10.86;31.19;102073.69;5037283;28;45534;-79
2024/01/10 10:44:35;;;;;;;;;40.00;33.75;;;;;10.94;30.93;102070.81;5036859;28;46232;-79
2024/01/10 10:47:05;;;;;;;;;15.25;7.50;;;;;10.99;30.91;102068.88;5036871;28;45411;-78
2024/01/10 10:49:32;;;;;;;;;33.75;32.00;;;;;11.05;30.83;102071.41;5036852;28;45395;-78
2024/01/10 10:51:59;;;;;;;;;39.25;34.25;;;;;11.12;30.69;102064.06;5050106;28;45515;-79
2024/01/10 10:54:29;;;;;;;;;34.75;30.00;;;;;11.08;30.98;102057.00;5037286;28;46138;-79
2024/01/10 10:56:57;;;;;;;;;29.75;28.50;;;;;11.12;30.77;102062.28;5036958;28;45368;-75
2024/01/10 10:59:26;;;;;;;;;30.75;26.50;;;;;11.19;31.19;102060.28;5010897;28;45328;-76
2024/01/10 11:01:54;;;;;;;;;42.50;34.00;;;;;11.28;30.92;102063.59;5036534;28;45363;-77
2024/01/10 11:04:22;;;;;;;;;39.25;32.75;;;;;11.21;30.49;102045.91;5039626;28;46248;-75
2024/01/10 11:06:47;;;;;;;;;36.75;29.75;;;;;11.20;30.72;102059.38;5036759;28;45390;-85
2024/01/10 11:09:18;;;;;;;;;37.25;31.50;;;;;11.03;30.70;102018.69;5028325;28;45504;-84
2024/01/10 11:12:07;;;;;;;;;45.25;37.75;;;;;11.30;30.43;102060.88;5036903;28;45572;-80
2024/01/10 11:14:44;;;;;;;;;42.00;35.50;;;;;11.19;30.55;102038.81;5037012;28;45440;-82
2024/01/10 11:17:39;;;;;;;;;37.50;32.75;;;;;11.19;30.59;102042.38;5036619;28;45294;-82
2024/01/10 11:20:47;;;;;;;;;35.25;31.00;;;;;11.04;30.86;102015.97;5017051;28;45318;-81
2024/01/10 11:23:14;;;;;;;;;37.75;36.00;;;;;11.26;30.49;102043.97;4956682;28;45460;-83
2024/01/10 11:25:40;;;;;;;;;47.50;39.50;;;;;11.26;30.35;102043.97;5005238;28;48281;-83
2024/01/10 11:28:05;;;;;;;;;44.75;38.75;;;;;11.19;30.74;102034.34;5021270;28;45391;-84
2024/01/10 11:30:35;;;;;;;;;43.25;37.75;;;;;11.09;30.65;102003.31;5038838;28;45359;-82
2024/01/10 11:33:52;;;;;;;;;42.75;36.25;;;;;11.38;31.00;102032.91;5019410;28;45906;-81
2024/01/10 11:36:20;;;;;;;;;43.50;38.75;;;;;11.46;30.21;102030.00;4964309;28;47326;-80
2024/01/10 11:38:53;;;;;;;;;42.00;36.75;;;;;11.23;30.80;101987.66;5036781;28;45500;-84
2024/01/10 11:41:31;;;;;;;;;36.50;32.75;;;;;11.25;30.43;101969.72;5028197;28;45542;-81
2024/01/10 11:44:11;;;;;;;;;39.25;30.75;;;;;11.72;30.32;102035.47;5036130;28;45326;-84
2024/01/10 11:46:48;;;;;;;;;42.75;34.50;;;;;11.79;30.24;102032.63;5036222;28;45913;-81
2024/01/10 11:49:16;;;;;;;;;42.25;35.25;;;;;11.72;30.39;102005.91;5036040;28;45517;-85
2024/01/10 11:51:45;;;;;;;;;48.25;41.00;;;;;11.98;30.24;102029.34;5036564;28;45465;-82
2024/01/10 11:54:10;;;;;;;;;39.75;37.50;;;;;11.95;30.26;102017.78;5035926;28;45598;-80
2024/01/10 11:56:41;;;;;;;;;43.33;38.67;;;;;12.09;30.09;102024.47;5035877;28;46607;-81
2024/01/10 11:59:08;;;;;;;;;38.75;35.50;;;;;12.01;30.28;102013.09;5036190;28;45300;-80
2024/01/10 12:01:35;;;;;;;;;35.00;29.75;;;;;11.78;29.84;101969.94;5036956;28;45429;-76
2024/01/10 12:04:03;;;;;;;;;48.75;37.00;;;;;11.89;29.73;101992.00;5018107;28;45460;-79
2024/01/10 12:06:29;;;;;;;;;45.75;38.00;;;;;12.01;29.73;102005.03;5020816;28;46278;-83
2024/01/10 12:08:55;;;;;;;;;37.75;35.75;;;;;12.15;30.37;102022.53;5044237;28;45542;-80
2024/01/10 12:11:21;;;;;;;;;36.75;32.75;;;;;12.22;29.76;102016.03;5039145;28;45435;-77
2024/01/10 12:13:47;;;;;;;;;39.75;38.00;;;;;12.27;29.70;102012.25;5040369;28;45461;-76
2024/01/10 12:16:17;;;;;;;;;34.00;29.00;;;;;12.38;29.98;102004.72;5040419;28;46023;-78
2024/01/10 12:18:43;;;;;;;;;39.00;34.50;;;;;12.43;29.87;102016.19;5024521;28;45358;-78
2024/01/10 12:21:08;;;;;;;;;36.75;35.25;;;;;12.47;29.46;101999.03;5043137;28;45453;-77
2024/01/10 12:23:38;;;;;;;;;33.75;31.25;;;;;12.52;29.24;102004.25;5039726;28;45492;-77
2024/01/10 12:26:07;;;;;;;;;36.50;32.75;;;;;12.60;29.14;102001.28;5042979;28;45433;-79
2024/01/10 12:28:32;;;;;;;;;31.50;28.00;;;;;12.59;28.98;101997.72;5043139;28;45600;-84
2024/01/10 12:30:58;;;;;;;;;25.25;20.75;;;;;12.67;29.12;102006.44;5027199;28;45489;-75
2024/01/10 12:33:24;;;;;;;;;46.00;37.75;;;;;12.81;29.13;102004.13;5019215;28;45342;-77
2024/01/10 12:36:08;;;;;;;;;47.25;39.25;;;;;12.78;29.09;101988.09;5043134;28;46387;-79
2024/01/10 12:38:34;;;;;;;;;33.50;32.25;;;;;12.66;28.98;101953.56;5044535;28;45335;-78
2024/01/10 12:41:00;;;;;;;;;42.00;35.25;;;;;12.94;28.83;101998.31;5039539;28;46174;-76
2024/01/10 12:43:26;;;;;;;;;42.50;31.75;;;;;12.96;29.47;101978.47;5040599;28;45369;-76
2024/01/10 12:46:04;;;;;;;;;39.25;34.00;;;;;13.10;28.92;101986.06;5034449;28;45427;-75
2024/01/10 12:48:30;;;;;;;;;35.25;31.00;;;;;13.16;28.89;101980.50;5033554;28;45367;-76
2024/01/10 12:51:00;;;;;;;;;24.50;24.50;;;;;13.19;28.84;101970.47;5041925;28;45181;-77
2024/01/10 12:53:26;;;;;;;;;35.75;34.25;;;;;13.24;29.00;101975.69;5031531;28;45395;-76
2024/01/10 12:55:51;;;;;;;;;36.50;30.25;;;;;13.24;28.58;101976.59;5037697;28;45525;-75
2024/01/10 12:58:19;;;;;;;;;36.75;36.00;;;;;13.29;28.89;101972.81;5042238;28;45523;-76
2024/01/10 13:00:45;;;;;;;;;36.75;35.50;;;;;13.34;28.46;101978.94;5041545;28;45550;-78
2024/01/10 13:03:10;;;;;;;;;37.25;34.75;;;;;13.32;28.70;101973.59;5024243;28;46559;-80
2024/01/10 13:05:39;;;;;;;;;40.00;36.25;;;;;13.18;29.10;101946.31;5044732;28;45306;-79
2024/01/10 13:08:05;;;;;;;;;43.75;36.75;;;;;13.36;28.88;101968.94;5017420;28;45315;-79
2024/01/10 13:10:31;;;;;;;;;35.25;32.25;;;;;13.33;29.02;101971.78;5037287;28;47372;-79
2024/01/10 13:12:56;;;;;;;;;40.50;37.75;;;;;13.30;28.57;101964.69;5041020;28;45432;-79
2024/01/10 13:15:21;;;;;;;;;38.25;37.00;;;;;13.06;29.00;101936.84;5035833;28;45474;-80
2024/01/10 13:17:47;;;;;;;;;40.00;37.25;;;;;13.05;29.01;101937.78;5043671;28;45491;-80
2024/01/10 13:20:12;;;;;;;;;39.50;33.00;;;;;12.80;28.28;101907.31;5043794;28;45493;-79
2024/01/10 13:22:38;;;;;;;;;39.25;34.00;;;;;12.79;28.97;101917.19;5037249;28;45545;-83
2024/01/10 13:25:03;;;;;;;;;39.25;35.25;;;;;12.97;29.04;101974.84;5017005;28;47633;-79
2024/01/10 13:27:29;;;;;;;;;46.25;36.50;;;;;12.92;29.25;101970.59;5037535;28;45404;-79
2024/01/10 13:29:54;;;;;;;;;44.25;37.50;;;;;12.71;29.84;101961.47;5036749;28;45414;-74
2024/01/10 13:32:19;;;;;;;;;35.50;33.25;;;;;12.72;29.61;101957.84;5032697;28;58164;-80
2024/01/10 13:34:45;;;;;;;;;34.75;32.75;;;;;12.57;29.79;101953.00;5017315;28;48654;-81
2024/01/10 13:37:12;;;;;;;;;40.25;33.25;;;;;12.65;29.63;101972.44;5033537;28;45448;-79
2024/01/10 13:39:39;;;;;;;;;41.50;37.75;;;;;12.47;29.60;101947.06;5031543;28;45348;-79
2024/01/10 13:42:04;;;;;;;;;30.25;30.25;;;;;12.52;30.09;101966.59;5027421;28;45557;-79
2024/01/10 13:44:29;;;;;;;;;41.75;37.75;;;;;12.39;29.80;101958.09;5036249;28;46372;-79
2024/01/10 13:46:56;;;;;;;;;45.00;36.50;;;;;12.26;30.17;101939.72;5035676;28;45399;-83
2024/01/10 13:49:21;;;;;;;;;34.50;32.75;;;;;12.24;30.30;101947.84;5033331;28;45477;-81
2024/01/10 13:51:46;;;;;;;;;34.25;34.25;;;;;12.40;30.67;101965.22;5033944;28;45471;-80
2024/01/10 13:54:12;;;;;;;;;38.00;36.50;;;;;12.14;30.37;101924.88;5033917;28;45507;-83
2024/01/10 13:56:39;;;;;;;;;42.75;38.25;;;;;12.40;30.46;101967.91;5034170;28;45429;-81
2024/01/10 13:59:05;;;;;;;;;37.00;35.00;;;;;12.27;30.16;101942.34;5034400;28;45402;-81
2024/01/10 14:01:30;;;;;;;;;40.25;37.75;;;;;12.35;30.06;101959.09;5032632;28;45369;-78
2024/01/10 14:03:55;;;;;;;;;48.25;40.25;;;;;12.48;30.47;101964.97;5016051;28;47036;-80
2024/01/10 14:06:21;;;;;;;;;41.25;37.50;;;;;12.13;30.20;101912.38;5032647;28;46546;-80
2024/01/10 14:08:48;;;;;;;;;41.75;37.75;;;;;12.26;30.06;101945.09;5032678;28;45757;-78
2024/01/10 14:11:14;;;;;;;;;42.25;37.75;;;;;12.27;30.35;101945.03;5032703;28;45384;-79
2024/01/10 14:13:39;;;;;;;;;42.25;38.00;;;;;12.27;30.71;101947.72;5034220;28;46292;-80
2024/01/10 14:16:05;;;;;;;;;40.00;36.50;;;;;12.06;30.71;101919.78;5035336;28;45635;-81
2024/01/10 14:18:30;;;;;;;;;40.25;37.25;;;;;12.29;30.63;101958.44;5032410;28;45800;-79
2024/01/10 14:20:55;;;;;;;;;43.75;36.75;;;;;12.36;30.94;101966.25;5026431;28;45331;-78
2024/01/10 14:23:21;;;;;;;;;38.25;34.25;;;;;12.49;30.63;101975.66;5032331;28;45440;-79
2024/01/10 14:25:46;;;;;;;;;53.50;41.00;;;;;12.68;30.68;101978.56;5033512;28;56248;-79
2024/01/10 14:28:11;;;;;;;;;41.00;38.50;;;;;12.77;30.02;101937.00;5032283;28;45528;-81
2024/01/10 14:30:37;;;;;;;;;41.50;36.75;;;;;13.16;30.04;101953.56;5033867;28;45366;-80
2024/01/10 14:33:03;;;;;;;;;45.25;40.00;;;;;13.58;29.66;101970.78;5032194;28;45427;-82
2024/01/10 14:35:29;;;;;;;;;42.50;35.75;;;;;13.86;29.50;101984.06;5033704;28;45524;-82
2024/01/10 14:37:54;;;;;;;;;44.75;39.75;;;;;13.94;28.71;101960.38;5032284;28;45919;-81
2024/01/10 14:40:23;;;;;;;;;45.75;39.00;;;;;14.09;28.42;101937.28;5034367;28;45624;-80
2024/01/10 14:42:48;;;;;;;;;37.50;33.00;;;;;14.62;28.20;101980.03;4999632;28;47665;-81
2024/01/10 14:45:14;;;;;;;;;38.75;31.75;;;;;14.85;27.63;101969.13;5032461;28;45213;-81
2024/01/10 14:47:39;;;;;;;;;41.50;34.50;;;;;15.23;27.01;101977.31;5033023;28;45327;-83
2024/01/10 14:50:05;;;;;;;;;36.75;32.50;;;;;15.67;26.42;101975.28;5033285;28;45481;-82
2024/01/10 14:52:31;;;;;;;;;32.50;32.50;;;;;16.03;26.34;101984.31;5032418;28;45518;-82
2024/01/10 14:54:57;;;;;;;;;37.50;33.75;;;;;16.24;25.89;101982.41;5033893;28;45467;-81
2024/01/10 14:57:22;;;;;;;;;39.50;36.00;;;;;16.23;25.67;101965.28;5031869;28;45386;-80
2024/01/10 14:59:48;;;;;;;;;40.75;34.00;;;;;16.21;25.75;101956.38;5034547;28;45396;-80
2024/01/10 15:02:15;;;;;;;;;43.00;35.00;;;;;16.27;25.19;101964.16;5036801;28;45784;-84
2024/01/10 15:04:41;;;;;;;;;32.75;27.75;;;;;16.28;25.44;101990.28;5035942;28;45515;-78
2024/01/10 15:07:07;;;;;;;;;37.50;33.00;;;;;16.01;25.90;101980.81;5036725;28;45343;-75
2024/01/10 15:09:33;;;;;;;;;34.75;32.50;;;;;15.80;25.85;101977.34;5040438;28;45255;-78
2024/01/10 15:11:58;;;;;;;;;29.50;28.75;;;;;15.66;26.29;101981.63;5036434;28;46312;-77
2024/01/10 15:14:24;;;;;;;;;35.50;33.75;;;;;15.42;25.96;101954.78;5036322;28;51773;-79
2024/01/10 15:16:49;;;;;;;;;36.75;31.00;;;;;15.30;26.10;101976.09;5017435;28;45385;-81
2024/01/10 15:19:14;;;;;;;;;27.00;26.25;;;;;15.02;26.97;101974.66;5019261;28;47418;-78
2024/01/10 15:21:40;;;;;;;;;34.25;31.75;;;;;14.89;27.35;101999.53;5035620;28;46546;-78
2024/01/10 15:24:06;;;;;;;;;27.75;26.25;;;;;14.61;27.04;101989.09;5036542;28;45703;-78
2024/01/10 15:26:33;;;;;;;;;30.50;29.50;;;;;14.31;27.29;101975.03;5036070;28;45374;-80
2024/01/10 15:28:58;;;;;;;;;34.25;33.75;;;;;14.13;28.16;101992.84;5018259;28;46764;-81
2024/01/10 15:31:28;;;;;;;;;40.50;36.25;;;;;13.89;28.56;101997.41;5035621;28;45812;-77
2024/01/10 15:33:54;;;;;;;;;41.75;33.25;;;;;13.58;28.54;101984.25;5036451;28;45358;-78
2024/01/10 15:36:19;;;;;;;;;37.75;32.75;;;;;13.34;28.70;101970.84;5036508;28;45379;-80
2024/01/10 15:38:45;;;;;;;;;38.75;34.75;;;;;13.34;28.70;101990.59;5036554;28;47774;-80
2024/01/10 15:41:13;;;;;;;;;34.25;31.75;;;;;13.16;29.26;101983.19;5026991;28;46102;-78
2024/01/10 15:43:38;;;;;;;;;32.00;32.00;;;;;13.02;29.15;102005.16;5019110;28;45497;-77
2024/01/10 15:46:04;;;;;;;;;40.50;33.50;;;;;12.91;29.80;101999.31;5036482;28;45380;-80
2024/01/10 15:48:30;;;;;;;;;30.00;25.00;;;;;12.81;29.57;102001.44;5036663;28;45451;-78
2024/01/10 15:50:56;;;;;;;;;42.25;37.75;;;;;12.66;29.82;101995.72;5036297;28;45376;-77
2024/01/10 15:53:22;;;;;;;;;30.00;27.00;;;;;12.63;29.84;102014.66;5036866;28;45307;-78
2024/01/10 15:55:50;;;;;;;;;36.50;30.00;;;;;12.49;30.00;102013.31;5036103;28;45446;-78
2024/01/10 15:58:16;;;;;;;;;29.00;20.50;;;;;12.28;30.37;101999.69;5035762;28;45465;-77
2024/01/10 16:00:42;;;;;;;;;43.75;40.00;;;;;12.36;30.62;102027.22;5021983;28;47090;-78
2024/01/10 16:03:07;;;;;;;;;48.50;39.25;;;;;12.25;31.13;102024.00;5044308;28;62982;-78
2024/01/10 16:05:32;;;;;;;;;41.50;34.75;;;;;12.15;31.06;102019.84;5017618;28;50550;-77
2024/01/10 16:07:57;;;;;;;;;44.75;35.00;;;;;12.13;31.33;102020.78;5028809;28;45415;-79
2024/01/10 16:10:23;;;;;;;;;43.00;33.50;;;;;12.02;31.33;102009.47;5033680;28;45584;-77
2024/01/10 16:12:48;;;;;;;;;38.00;36.50;;;;;12.15;31.37;102042.25;5034843;28;45435;-78
2024/01/10 16:15:13;;;;;;;;;39.50;36.25;;;;;12.04;31.56;102047.94;5035561;28;45413;-79
2024/01/10 16:17:39;;;;;;;;;40.00;35.75;;;;;11.91;31.79;102038.50;5035432;28;45315;-77
2024/01/10 16:20:05;;;;;;;;;45.75;38.50;;;;;11.87;31.68;102050.28;5027790;28;47055;-79
2024/01/10 16:22:34;;;;;;;;;44.25;39.75;;;;;11.85;31.78;102046.75;5035765;28;45499;-77
2024/01/10 16:25:00;;;;;;;;;48.00;37.75;;;;;11.52;31.67;102000.25;5017564;28;45296;-77
2024/01/10 16:27:26;;;;;;;;;46.50;38.75;;;;;11.50;32.04;102011.97;5017495;28;46869;-80
2024/01/10 16:29:52;;;;;;;;;43.00;33.50;;;;;11.65;31.88;102039.25;5013213;28;47321;-76
2024/01/10 16:32:17;;;;;;;;;43.50;41.25;;;;;11.56;32.20;102041.34;5034529;28;45558;-77
2024/01/10 16:34:42;;;;;;;;;37.75;30.75;;;;;11.54;32.23;102045.88;5035338;28;45492;-75
2024/01/10 16:37:08;;;;;;;;;44.75;35.50;;;;;11.52;32.48;102061.16;5035302;28;45355;-75
2024/01/10 16:39:34;;;;;;;;;43.25;38.50;;;;;11.47;32.62;102041.63;5034835;28;45900;-76